Home > Products > Valid Products > MTR

000
SAUS43 KMQT 042057
MTRP53
METAR KP53 042056Z AUTO 33019G26KT 04/M01 A2990 RMK AO1 PK WND
33027/2030 SLP133 T00391006 53013





000
SAUS43 KMQT 042054
MTRP59
METAR KP59 042051Z AUTO 36010KT 06/02 A2995 RMK AO1 SLP151 T00560017
53006





000
SAUS43 KMQT 041957
MTRP53
METAR KP53 041956Z AUTO 33022G27KT 04/M01 A2989 RMK AO1 PK WND
35028/1931 SLP127 T00391006





000
SAUS43 KMQT 041953
MTRP59
METAR KP59 041951Z AUTO 01009KT 05/01 A2995 RMK AO1 SLP148 T00500011





000
SAUS43 KMQT 041857
MTRP53
METAR KP53 041856Z AUTO 33018G25KT 04/M01 A2988 RMK AO1 PK WND
36028/1816 SLP123 T00391006





000
SAUS43 KMQT 041857
MTRP53
METAR KP53 041856Z AUTO 33018G25KT 04/M01 A2988 RMK AO1 PK WND
36028/1816 SLP123 T00391006





000
SAUS43 KMQT 041853
MTRP59
METAR KP59 041851Z AUTO 01013KT 04/01 A2994 RMK AO1 SLP146 T00440011





000
SAUS43 KMQT 041853
MTRP59
METAR KP59 041851Z AUTO 01013KT 04/01 A2994 RMK AO1 SLP146 T00440011





000
SAUS43 KMQT 041757
MTRP53
METAR KP53 041756Z AUTO 36019G25KT 04/00 A2987 RMK AO1 PK WND
01030/1659 SLP120 T00390000 10044 20039 53014





000
SAUS43 KMQT 041757
MTRP53
METAR KP53 041756Z AUTO 36019G25KT 04/00 A2987 RMK AO1 PK WND
01030/1659 SLP120 T00390000 10044 20039 53014





000
SAUS43 KMQT 041754
MTRP59
METAR KP59 041751Z AUTO 02014KT 04/01 A2994 RMK AO1 SLP145 T00390006
10039 20033 51012





000
SAUS43 KMQT 041754
MTRP59
METAR KP59 041751Z AUTO 02014KT 04/01 A2994 RMK AO1 SLP145 T00390006
10039 20033 51012





000
SAUS43 KMQT 041657
MTRP53
METAR KP53 041656Z AUTO 36021G29KT 04/00 A2985 RMK AO1 PK WND
36030/1621 SLP114 T00390000





000
SAUS43 KMQT 041654
MTRP59
METAR KP59 041651Z AUTO 03014KT 03/01 A2993 RMK AO1 SLP144 T00330006





000
SAUS43 KMQT 041557
MTRP53
METAR KP53 041556Z AUTO 36022KT 04/M01 A2984 RMK AO1 PK WND
36028/1532 SLP110 T00391006





000
SAUS43 KMQT 041554
MTRP59
METAR KP59 041551Z AUTO 03018KT 03/01 A2992 RMK AO1 SLP138 T00330006





000
SAUS43 KMQT 041457
MTRP53
METAR KP53 041456Z AUTO 35018KT 04/01 A2982 RMK AO1 PK WND
36028/1400 SLP105 T00390006 51018





000
SAUS43 KMQT 041454
MTRP59
METAR KP59 041451Z AUTO 04015G23KT 03/01 A2990 RMK AO1 SLP132
T00330006 51022





000
SAUS43 KMQT 041357
MTRP53
METAR KP53 041356Z AUTO 36023KT 04/01 A2981 RMK AO1 PK WND
36029/1307 SLP100 T00390006





000
SAUS43 KMQT 041357
MTRP53
METAR KP53 041356Z AUTO 36023KT 04/01 A2981 RMK AO1 PK WND
36029/1307 SLP100 T00390006





000
SAUS43 KMQT 041354
MTRP59
METAR KP59 041351Z AUTO 04014G22KT 03/01 A2988 RMK AO1 SLP126
T00330006





000
SAUS43 KMQT 041257
MTRP53
METAR KP53 041256Z AUTO 36021G27KT 04/01 A2979 RMK AO1 PK WND
36030/1224 SLP093 T00390006





000
SAUS43 KMQT 041257
MTRP53
METAR KP53 041256Z AUTO 36021G27KT 04/01 A2979 RMK AO1 PK WND
36030/1224 SLP093 T00390006





000
SAUS43 KMQT 041252
MTRP59
METAR KP59 041251Z AUTO 03014KT 03/01 A2986 RMK AO1 SLP120 T00330011





000
SAUS43 KMQT 041252
MTRP59
METAR KP59 041251Z AUTO 03014KT 03/01 A2986 RMK AO1 SLP120 T00330011





000
SAUS43 KMQT 041157
MTRP53
METAR KP53 041156Z AUTO 35017KT 04/01 A2977 RMK AO1 SLP086 60001
70017 T00390006 10050 20033 53014





000
SAUS43 KMQT 041153
MTRP59
METAR KP59 041151Z AUTO 03018KT 03/02 A2983 RMK AO1 SLP109 70007
T00330017 10044 20033 53010





000
SAUS43 KMQT 041058
MTRP53
METAR KP53 041056Z AUTO 35016G23KT 04/01 A2975 RMK AO1 SLP078
T00390011





000
SAUS43 KMQT 041058
MTRP53
METAR KP53 041056Z AUTO 35016G23KT 04/01 A2975 RMK AO1 SLP078
T00390011





000
SAUS43 KMQT 041053
MTRP59
METAR KP59 041051Z AUTO 03016KT 04/02 A2982 RMK AO1 SLP102 T00390017





000
SAUS43 KMQT 040957
MTRP53
METAR KP53 040956Z AUTO 36017KT 04/02 A2973 RMK AO1 SLP073 T00440017





000
SAUS43 KMQT 040954
MTRP59
METAR KP59 040951Z AUTO 01012KT 04/03 A2981 RMK AO1 SLP100 T00390028





000
SAUS43 KMQT 040857
MTRP53
METAR KP53 040856Z AUTO 34011KT 04/02 A2973 RMK AO1 SLP070 60001
T00440022 53005





000
SAUS43 KMQT 040857
MTRP53
METAR KP53 040856Z AUTO 34011KT 04/02 A2973 RMK AO1 SLP070 60001
T00440022 53005





000
SAUS43 KMQT 040854
MTRP59
METAR KP59 040851Z AUTO 03011KT 03/02 A2980 RMK AO1 SLP098 T00330022
53010





000
SAUS43 KMQT 040757
MTRP53
METAR KP53 040756Z AUTO 32011KT 04/03 A2971 RMK AO1 SLP067 P0001
T00440028





000
SAUS43 KMQT 040753
MTRP59
METAR KP59 040751Z AUTO 03015G20KT 04/02 A2979 RMK AO1 SLP092
T00390017





000
SAUS43 KMQT 040657
MTRP53
METAR KP53 040656Z AUTO 32008KT 04/03 A2971 RMK AO1 SLP066 T00440028





000
SAUS43 KMQT 040654
MTRP59
METAR KP59 040651Z AUTO 04011KT 04/02 A2978 RMK AO1 SLP088 T00440022





000
SAUS43 KMQT 040557
MTRP53
METAR KP53 040556Z AUTO 31010KT 05/03 A2971 RMK AO1 SLP063 T00500028
10094 20044 50002





000
SAUS43 KMQT 040557
MTRP53
METAR KP53 040556Z AUTO 31010KT 05/03 A2971 RMK AO1 SLP063 T00500028
10094 20044 50002





000
SAUS43 KMQT 040554
MTRP59
METAR KP59 040551Z AUTO 01011KT 04/03 A2977 RMK AO1 SLP087 T00440028
10089 20044 51007





000
SAUS43 KMQT 040554
MTRP59
METAR KP59 040551Z AUTO 01011KT 04/03 A2977 RMK AO1 SLP087 T00440028
10089 20044 51007





000
SAUS43 KMQT 040457
MTRP53
METAR KP53 040456Z AUTO 32008KT 04/03 A2971 RMK AO1 SLP063 T00440028
401940000





000
SAUS43 KMQT 040457
MTRP53
METAR KP53 040456Z AUTO 32008KT 04/03 A2971 RMK AO1 SLP063 T00440028
401940000





000
SAUS43 KMQT 040454
MTRP59
METAR KP59 040451Z AUTO 36009KT 04/03 A2977 RMK AO1 SLP085 T00440033
401440044





000
SAUS43 KMQT 040454
MTRP59
METAR KP59 040451Z AUTO 36009KT 04/03 A2977 RMK AO1 SLP085 T00440033
401440044





000
SAUS43 KMQT 040357
MTRP53
METAR KP53 040356Z AUTO 31008KT 05/02 A2970 RMK AO1 SLP062 T00500022





000
SAUS43 KMQT 040357
MTRP53
METAR KP53 040356Z AUTO 31008KT 05/02 A2970 RMK AO1 SLP062 T00500022





000
SAUS43 KMQT 040354
MTRP59
METAR KP59 040351Z AUTO 02013KT 04/03 A2976 RMK AO1 SLP080 T00440028





000
SAUS43 KMQT 040258
MTRP53
METAR KP53 040256Z AUTO 33007KT 06/03 A2970 RMK AO1 SLP062 T00610033
51017





000
SAUS43 KMQT 040258
MTRP53
METAR KP53 040256Z AUTO 33007KT 06/03 A2970 RMK AO1 SLP062 T00610033
51017





000
SAUS43 KMQT 040253
MTRP59
METAR KP59 040251Z AUTO 03018G24KT 05/03 A2975 RMK AO1 PK WND
03027/0207 SLP076 T00500028 51024





000
SAUS43 KMQT 040253
MTRP59
METAR KP59 040251Z AUTO 03018G24KT 05/03 A2975 RMK AO1 PK WND
03027/0207 SLP076 T00500028 51024





000
SAUS43 KMQT 040157
MTRP53
METAR KP53 040156Z AUTO 32008KT 06/04 A2970 RMK AO1 SLP059 T00610044





000
SAUS43 KMQT 040157
MTRP53
METAR KP53 040156Z AUTO 32008KT 06/04 A2970 RMK AO1 SLP059 T00610044





000
SAUS43 KMQT 040154
MTRP59
METAR KP59 040151Z AUTO 01014G21KT 06/02 A2974 RMK AO1 SLP074
T00560022





000
SAUS43 KMQT 040058
MTRP53
METAR KP53 040056Z AUTO 33007KT 07/05 A2968 RMK AO1 SLP054 T00720050





000
SAUS43 KMQT 040053
MTRP59
METAR KP59 040051Z AUTO 04018G24KT 06/02 A2972 RMK AO1 SLP068
T00610022





000
SAUS43 KMQT 032357
MTRP53
METAR KP53 032356Z AUTO 32010KT 09/06 A2965 RMK AO1 SLP045 60016
T00890056 10194 20072 55006





000
SAUS43 KMQT 032353
MTRP59
METAR KP59 032351Z AUTO 35009KT 09/05 A2968 RMK AO1 SLP052 60001
T00890050 10139 20067 53009





000
SAUS43 KMQT 032353
MTRP59
METAR KP59 032351Z AUTO 35009KT 09/05 A2968 RMK AO1 SLP052 60001
T00890050 10139 20067 53009





000
SAUS43 KMQT 032257
MTRP53
METAR KP53 032256Z AUTO VRB03KT 12/08 A2964 RMK AO1 SLP040 T01170083





000
SAUS43 KMQT 032257
MTRP53
METAR KP53 032256Z AUTO VRB03KT 12/08 A2964 RMK AO1 SLP040 T01170083





000
SAUS43 KMQT 032253
MTRP59
METAR KP59 032251Z AUTO 36010KT 09/05 A2965 RMK AO1 SLP045 T00940050





000
SAUS43 KMQT 032157
MTRP53
METAR KP53 032156Z AUTO 20005KT 11/08 A2964 RMK AO1 SLP043 P0003
T01060083





000
SAUS43 KMQT 032154
MTRP59
METAR KP59 032151Z AUTO 35007KT 08/06 A2964 RMK AO1 SLP040 P0001
T00830056





000
SAUS43 KMQT 032154
MTRP59
METAR KP59 032151Z AUTO 35007KT 08/06 A2964 RMK AO1 SLP040 P0001
T00830056





000
SAUS43 KMQT 032057
MTRP53
METAR KP53 032056Z AUTO 28003KT 09/08 A2967 RMK AO1 SLP053 P0011
60013 T00940078 50011





000
SAUS43 KMQT 032057
MTRP53
METAR KP53 032056Z AUTO 28003KT 09/08 A2967 RMK AO1 SLP053 P0011
60013 T00940078 50011





000
SAUS43 KMQT 032054
MTRP59
METAR KP59 032051Z AUTO 36011KT 09/05 A2965 RMK AO1 PK WND
34027/2004 SLP042 T00890050 53007





000
SAUS43 KMQT 031957
MTRP53
METAR KP53 031956Z AUTO 00000KT 08/06 A2968 RMK AO1 SLP056 P0002
T00780061





000
SAUS43 KMQT 031953
MTRP59
METAR KP59 031951Z AUTO 35019KT 09/06 A2962 RMK AO1 SLP033 T00940056





000
SAUS43 KMQT 031857
MTRP53
METAR KP53 031856Z AUTO 32014G26KT 10/03 A2968 RMK AO1 PK WND
32029/1842 WSHFT 1839 SLP054 T01000028





000
SAUS43 KMQT 031854
MTRP59
METAR KP59 031851Z AUTO 33007G18KT 290V360 13/06 A2961 RMK AO1
SLP029 T01330061





000
SAUS43 KMQT 031854
MTRP59
METAR KP59 031851Z AUTO 33007G18KT 290V360 13/06 A2961 RMK AO1
SLP029 T01330061





000
SAUS43 KMQT 031757
MTRP53
METAR KP53 031756Z AUTO 29008KT 18/M01 A2964 RMK AO1 SLP039
T01781006 10189 20072 56028





000
SAUS43 KMQT 031754
MTRP59
METAR KP59 031751Z AUTO 36005KT 07/04 A2963 RMK AO1 SLP038 60006
T00720044 10144 20061 58008





000
SAUS43 KMQT 031754
MTRP59
METAR KP59 031751Z AUTO 36005KT 07/04 A2963 RMK AO1 SLP038 60006
T00720044 10144 20061 58008





000
SAUS43 KMQT 031657
MTRP53
METAR KP53 031656Z AUTO 21009G16KT 19/M01 A2965 RMK AO1 SLP043
T01891006





000
SAUS43 KMQT 031657
MTRP53
METAR KP53 031656Z AUTO 21009G16KT 19/M01 A2965 RMK AO1 SLP043
T01891006





000
SAUS43 KMQT 031653
MTRP59
METAR KP59 031651Z AUTO 34008KT 06/06 A2965 RMK AO1 SLP044 P0005
T00610056





000
SAUS43 KMQT 031558
MTRP53
METAR KP53 031556Z AUTO 20007KT 17/02 A2969 RMK AO1 SLP057 T01670017





000
SAUS43 KMQT 031553
MTRP59
METAR KP59 031551Z AUTO 33008G15KT 12/05 A2965 RMK AO1 SLP044 P0001
T01170050





000
SAUS43 KMQT 031553
MTRP59
METAR KP59 031551Z AUTO 33008G15KT 12/05 A2965 RMK AO1 SLP044 P0001
T01170050





000
SAUS43 KMQT 031457
MTRP53
METAR KP53 031456Z AUTO 20007KT 14/02 A2972 RMK AO1 SLP069 T01440017
58025





000
SAUS43 KMQT 031454
MTRP59
METAR KP59 031451Z AUTO 32009G16KT 290V350 14/01 A2965 RMK AO1
SLP043 T01440011 56020





000
SAUS43 KMQT 031358
MTRP53
METAR KP53 031356Z AUTO 21008KT 12/01 A2975 RMK AO1 SLP078 T01220011





000
SAUS43 KMQT 031354
MTRP59
METAR KP59 031351Z AUTO 35016KT 13/01 A2967 RMK AO1 SLP050 T01330011





000
SAUS43 KMQT 031257
MTRP53
METAR KP53 031256Z AUTO 19008KT 08/01 A2978 RMK AO1 SLP089 T00830011





000
SAUS43 KMQT 031257
MTRP53
METAR KP53 031256Z AUTO 19008KT 08/01 A2978 RMK AO1 SLP089 T00830011





000
SAUS43 KMQT 031253
MTRP59
METAR KP59 031251Z AUTO VRB06KT 10/01 A2968 RMK AO1 SLP052 T01000011





000
SAUS43 KMQT 031253
MTRP59
METAR KP59 031251Z AUTO VRB06KT 10/01 A2968 RMK AO1 SLP052 T01000011





000
SAUS43 KMQT 031157
MTRP53
METAR KP53 031156Z AUTO 19007KT 07/01 A2980 RMK AO1 SLP095 T00670006
10067 20000 56021





000
SAUS43 KMQT 031157
MTRP53
METAR KP53 031156Z AUTO 19007KT 07/01 A2980 RMK AO1 SLP095 T00670006
10067 20000 56021





000
SAUS43 KMQT 031154
MTRP59
METAR KP59 031151Z AUTO VRB03KT 09/01 A2971 RMK AO1 SLP064 7////
T00890011 10106 20061 56026





000
SAUS43 KMQT 031154
MTRP59
METAR KP59 031151Z AUTO VRB03KT 09/01 A2971 RMK AO1 SLP064 7////
T00890011 10106 20061 56026





000
SAUS43 KMQT 031058
MTRP53
METAR KP53 031056Z AUTO 20009KT 06/00 A2981 RMK AO1 SLP101 T00560000





000
SAUS43 KMQT 031058
MTRP53
METAR KP53 031056Z AUTO 20009KT 06/00 A2981 RMK AO1 SLP101 T00560000





000
SAUS43 KMQT 031054
MTRP59
METAR KP59 031051Z AUTO 25006KT 08/01 A2974 RMK AO1 SLP073 T00780011





000
SAUS43 KMQT 030957
MTRP53
METAR KP53 030956Z AUTO 21005KT 03/M01 A2984 RMK AO1 SLP110
T00281006





000
SAUS43 KMQT 030954
MTRP59
METAR KP59 030951Z AUTO 24010KT 10/01 A2976 RMK AO1 SLP079 T01000011





000
SAUS43 KMQT 030857
MTRP53
METAR KP53 030856Z AUTO 19005KT 01/M02 A2986 RMK AO1 SLP119
T00061017 56020





000
SAUS43 KMQT 030857
MTRP53
METAR KP53 030856Z AUTO 19005KT 01/M02 A2986 RMK AO1 SLP119
T00061017 56020





000
SAUS43 KMQT 030852
MTRP59
METAR KP59 030851Z AUTO 25009G17KT 11/01 A2979 RMK AO1 SLP092
T01060011 57035





000
SAUS43 KMQT 030852
MTRP59
METAR KP59 030851Z AUTO 25009G17KT 11/01 A2979 RMK AO1 SLP092
T01060011 57035





000
SAUS43 KMQT 030757
MTRP53
METAR KP53 030756Z AUTO 19004KT 01/M02 A2988 RMK AO1 SLP125
T00061017





000
SAUS43 KMQT 030752
MTRP59
METAR KP59 030751Z AUTO 24006KT 07/01 A2983 RMK AO1 SLP105 T00720011





000
SAUS43 KMQT 030658
MTRP53
METAR KP53 030656Z AUTO 18005KT 01/M01 A2990 RMK AO1 SLP130
T00111011





000
SAUS43 KMQT 030654
MTRP59
METAR KP59 030651Z AUTO 24005KT 07/01 A2986 RMK AO1 SLP117 T00720006





000
SAUS43 KMQT 030557
MTRP53
METAR KP53 030556Z AUTO 18006KT 01/M01 A2992 RMK AO1 SLP139
T00111011 10083 20011 56022





000
SAUS43 KMQT 030557
MTRP53
METAR KP53 030556Z AUTO 18006KT 01/M01 A2992 RMK AO1 SLP139
T00111011 10083 20011 56022





000
SAUS43 KMQT 030554
MTRP59
METAR KP59 030551Z AUTO 24004KT 07/01 A2990 RMK AO1 SLP130 T00670006
10117 20056 56021





000
SAUS43 KMQT 030458
MTRP53
METAR KP53 030456Z AUTO 19005KT 02/M01 A2994 RMK AO1 SLP145
T00171011 400891006





000
SAUS43 KMQT 030454
MTRP59
METAR KP59 030451Z AUTO 00000KT 07/01 A2992 RMK AO1 SLP136 T00670006
401170000





000
SAUS43 KMQT 030454
MTRP59
METAR KP59 030451Z AUTO 00000KT 07/01 A2992 RMK AO1 SLP136 T00670006
401170000





000
SAUS43 KMQT 030357
MTRP53
METAR KP53 030356Z AUTO 19004KT 03/M01 A2996 RMK AO1 SLP153
T00281006





000
SAUS43 KMQT 030354
MTRP59
METAR KP59 030351Z AUTO 27004KT 07/01 A2994 RMK AO1 SLPNO T00720006





000
SAUS43 KMQT 030258
MTRP53
METAR KP53 030256Z AUTO 20005KT 03/00 A2999 RMK AO1 SLP162 T00330000
58007





000
SAUS43 KMQT 030254
MTRP59
METAR KP59 030251Z AUTO 00000KT 07/01 A2996 RMK AO1 SLPNO T00720011
58009





000
SAUS43 KMQT 030157
MTRP53
METAR KP53 030156Z AUTO 19003KT 05/01 A3000 RMK AO1 SLP166 T00500006





000
SAUS43 KMQT 030152
MTRP59
METAR KP59 030151Z AUTO VRB03KT 08/01 A2998 RMK AO1 SLP156 T00780011





000
SAUS43 KMQT 030057
MTRP53
METAR KP53 030056Z AUTO 00000KT 07/02 A3000 RMK AO1 SLP165 T00670022





000
SAUS43 KMQT 030057
MTRP53
METAR KP53 030056Z AUTO 00000KT 07/02 A3000 RMK AO1 SLP165 T00670022





000
SAUS43 KMQT 030053
MTRP59
METAR KP59 030051Z AUTO 24003KT 10/01 A2999 RMK AO1 SLP159 T01000011





000
SAUS43 KMQT 030053
MTRP59
METAR KP59 030051Z AUTO 24003KT 10/01 A2999 RMK AO1 SLP159 T01000011





000
SAUS43 KMQT 022357
MTRP53
METAR KP53 022356Z AUTO 36003KT 08/02 A3001 RMK AO1 SLP168 T00830022
10089 20072 56015





000
SAUS43 KMQT 022357
MTRP53
METAR KP53 022356Z AUTO 36003KT 08/02 A3001 RMK AO1 SLP168 T00830022
10089 20072 56015





000
SAUS43 KMQT 022354
MTRP59
METAR KP59 022351Z AUTO 24006KT 12/01 A2999 RMK AO1 SLP160 T01170011
10117 20067 58018





000
SAUS43 KMQT 022354
MTRP59
METAR KP59 022351Z AUTO 24006KT 12/01 A2999 RMK AO1 SLP160 T01170011
10117 20067 58018





000
SAUS43 KMQT 022257
MTRP53
METAR KP53 022256Z AUTO 00000KT 07/02 A3002 RMK AO1 SLP173 T00720022





000
SAUS43 KMQT 022257
MTRP53
METAR KP53 022256Z AUTO 00000KT 07/02 A3002 RMK AO1 SLP173 T00720022





000
SAUS43 KMQT 022254
MTRP59
METAR KP59 022251Z AUTO 00000KT 10/02 A3001 RMK AO1 SLP170 T01000017





000
SAUS43 KMQT 022157
MTRP53
METAR KP53 022156Z AUTO 02005KT 08/03 A3004 RMK AO1 SLP178 T00830028





000
SAUS43 KMQT 022154
MTRP59
METAR KP59 022151Z AUTO 00000KT 10/02 A3002 RMK AO1 SLP173 T01000022





000
SAUS43 KMQT 022057
MTRP53
METAR KP53 022056Z AUTO 04008KT 08/04 A3006 RMK AO1 SLP184 T00780039
58015





000
SAUS43 KMQT 022057
MTRP53
METAR KP53 022056Z AUTO 04008KT 08/04 A3006 RMK AO1 SLP184 T00780039
58015





000
SAUS43 KMQT 022054
MTRP59
METAR KP59 022051Z AUTO 00000KT 08/03 A3004 RMK AO1 SLP181 T00780028
58019





000
SAUS43 KMQT 021957
MTRP53
METAR KP53 021956Z AUTO 05009KT 08/04 A3007 RMK AO1 SLP190 T00780039





000
SAUS43 KMQT 021954
MTRP59
METAR KP59 021951Z AUTO 00000KT 08/03 A3007 RMK AO1 SLP189 T00780033





000
SAUS43 KMQT 021857
MTRP53
METAR KP53 021856Z AUTO 04008KT 08/03 A3009 RMK AO1 SLP196 T00830033





000
SAUS43 KMQT 021857
MTRP53
METAR KP53 021856Z AUTO 04008KT 08/03 A3009 RMK AO1 SLP196 T00830033





000
SAUS43 KMQT 021854
MTRP59
METAR KP59 021851Z AUTO 00000KT 07/03 A3008 RMK AO1 SLP195 T00720033





000
SAUS43 KMQT 021854
MTRP59
METAR KP59 021851Z AUTO 00000KT 07/03 A3008 RMK AO1 SLP195 T00720033





000
SAUS43 KMQT 021757
MTRP53
METAR KP53 021756Z AUTO 04008KT 08/03 A3010 RMK AO1 SLP199 T00780033
10083 20033 58005





000
SAUS43 KMQT 021757
MTRP53
METAR KP53 021756Z AUTO 04008KT 08/03 A3010 RMK AO1 SLP199 T00780033
10083 20033 58005





000
SAUS43 KMQT 021754
MTRP59
METAR KP59 021751Z AUTO 01003KT 07/03 A3010 RMK AO1 SLP200 6////
T00670028





000
SAUS43 KMQT 021657
MTRP53
METAR KP53 021656Z AUTO 34008KT 08/03 A3010 RMK AO1 SLP201 T00780028





000
SAUS43 KMQT 021654
MTRP59
METAR KP59 021651Z AUTO 00000KT 06/03 A3011 RMK AO1 SLP205 T00610033





000
SAUS43 KMQT 021654
MTRP59
METAR KP59 021651Z AUTO 00000KT 06/03 A3011 RMK AO1 SLP205 T00610033





000
SAUS43 KMQT 021557
MTRP53
METAR KP53 021556Z AUTO 36009KT 07/03 A3011 RMK AO1 SLP202 T00720028





000
SAUS43 KMQT 021554
MTRP59
METAR KP59 021551Z AUTO A3011 RMK AO1 SLPNO PNO $





000
SAUS43 KMQT 021458
MTRP53
METAR KP53 021456Z AUTO 36009KT 07/02 A3011 RMK AO1 SLP203 T00670022
58001





000
SAUS43 KMQT 021458
MTRP53
METAR KP53 021456Z AUTO 36009KT 07/02 A3011 RMK AO1 SLP203 T00670022
58001





000
SAUS43 KMQT 021454
MTRP59
METAR KP59 021451Z AUTO A3013 RMK AO1 SLPNO 6//// 55002 PNO $





000
SAUS43 KMQT 021357
MTRP53
METAR KP53 021356Z AUTO 01008KT 07/03 A3012 RMK AO1 SLP204 T00670028





000
SAUS43 KMQT 021352
MTRP59
METAR KP59 021351Z AUTO 01007KT 06/02 A3013 RMK AO1 SLP211 T00560022





000
SAUS43 KMQT 021257
MTRP53
METAR KP53 021256Z AUTO VRB03KT 06/02 A3012 RMK AO1 SLP204 T00610022





000
SAUS43 KMQT 021254
MTRP59
METAR KP59 021251Z AUTO 35005KT 06/02 A3014 RMK AO1 SLP212 T00560022





000
SAUS43 KMQT 021157
MTRP53
METAR KP53 021156Z AUTO 00000KT 03/01 A3012 RMK AO1 SLP205 T00330006
10033 21006 53007





000
SAUS43 KMQT 021157
MTRP53
METAR KP53 021156Z AUTO 00000KT 03/01 A3012 RMK AO1 SLP205 T00330006
10033 21006 53007





000
SAUS43 KMQT 021153
MTRP59
METAR KP59 021151Z AUTO 00000KT 03/01 A3014 RMK AO1 SLP213 T00280011
10028 20000 53010





000
SAUS43 KMQT 021057
MTRP53
METAR KP53 021056Z AUTO VRB03KT 01/M01 A3010 RMK AO1 SLP201
T00061011





000
SAUS43 KMQT 021057
MTRP53
METAR KP53 021056Z AUTO VRB03KT 01/M01 A3010 RMK AO1 SLP201
T00061011





000
SAUS43 KMQT 021054
MTRP59
METAR KP59 021051Z AUTO 25005KT 01/M01 A3012 RMK AO1 SLP208
T00061006





000
SAUS43 KMQT 020957
MTRP53
METAR KP53 020956Z AUTO 17004KT M01/M02 A3009 RMK AO1 SLP197
T10061022





000
SAUS43 KMQT 020954
MTRP59
METAR KP59 020951Z AUTO 26004KT 01/00 A3012 RMK AO1 SLP207 T00060000





000
SAUS43 KMQT 020954
MTRP59
METAR KP59 020951Z AUTO 26004KT 01/00 A3012 RMK AO1 SLP207 T00060000





000
SAUS43 KMQT 020858
MTRP53
METAR KP53 020856Z AUTO 18004KT M01/M02 A3009 RMK AO1 SLP197
T10061022 55005





000
SAUS43 KMQT 020854
MTRP59
METAR KP59 020851Z AUTO 28004KT 01/00 A3011 RMK AO1 SLP204 T00060000
56008





000
SAUS43 KMQT 020757
MTRP53
METAR KP53 020756Z AUTO 18006KT 00/M01 A3009 RMK AO1 SLP197
T00001011





000
SAUS43 KMQT 020752
MTRP59
METAR KP59 020751Z AUTO 26003KT 01/00 A3012 RMK AO1 SLP208 T00110000





000
SAUS43 KMQT 020752
MTRP59
METAR KP59 020751Z AUTO 26003KT 01/00 A3012 RMK AO1 SLP208 T00110000





000
SAUS43 KMQT 020657
MTRP53
METAR KP53 020656Z AUTO 18005KT 00/M02 A3010 RMK AO1 SLP198
T00001017





000
SAUS43 KMQT 020653
MTRP59
METAR KP59 020651Z AUTO 26003KT 01/00 A3012 RMK AO1 SLP208 T00110000





000
SAUS43 KMQT 020558
MTRP53
METAR KP53 020556Z AUTO 18003KT 00/M01 A3011 RMK AO1 SLP202
T00001011 10061 20000 56011





000
SAUS43 KMQT 020558
MTRP53
METAR KP53 020556Z AUTO 18003KT 00/M01 A3011 RMK AO1 SLP202
T00001011 10061 20000 56011





000
SAUS43 KMQT 020554
MTRP59
METAR KP59 020551Z AUTO 25004KT 02/00 A3013 RMK AO1 SLP213 T00170000
10083 20017 56007





000
SAUS43 KMQT 020457
MTRP53
METAR KP53 020456Z AUTO 00000KT 01/M01 A3012 RMK AO1 SLP205
T00061011 400831006





000
SAUS43 KMQT 020457
MTRP53
METAR KP53 020456Z AUTO 00000KT 01/M01 A3012 RMK AO1 SLP205
T00061011 400831006





000
SAUS43 KMQT 020454
MTRP59
METAR KP59 020451Z AUTO 24005KT 02/01 A3013 RMK AO1 SLP212 T00220006
400890022





000
SAUS43 KMQT 020357
MTRP53
METAR KP53 020356Z AUTO 18003KT 02/00 A3013 RMK AO1 SLP210 T00170000





000
SAUS43 KMQT 020352
MTRP59
METAR KP59 020351Z AUTO 25005KT 03/01 A3014 RMK AO1 SLP215 T00280011





000
SAUS43 KMQT 020258
MTRP53
METAR KP53 020256Z AUTO 32003KT 04/02 A3014 RMK AO1 SLP212 T00440022
51002





000
SAUS43 KMQT 020254
MTRP59
METAR KP59 020251Z AUTO 25004KT 03/02 A3016 RMK AO1 SLP219 T00330017
58001





000
SAUS43 KMQT 020254
MTRP59
METAR KP59 020251Z AUTO 25004KT 03/02 A3016 RMK AO1 SLP219 T00330017
58001





000
SAUS43 KMQT 020157
MTRP53
METAR KP53 020156Z AUTO 32005KT 05/02 A3014 RMK AO1 SLP212 T00500017





000
SAUS43 KMQT 020153
MTRP59
METAR KP59 020151Z AUTO 00000KT 04/02 A3016 RMK AO1 SLP221 T00440022





000
SAUS43 KMQT 020057
MTRP53
METAR KP53 020056Z AUTO 34005KT 05/02 A3014 RMK AO1 SLP213 T00500022





000
SAUS43 KMQT 020057
MTRP53
METAR KP53 020056Z AUTO 34005KT 05/02 A3014 RMK AO1 SLP213 T00500022





000
SAUS43 KMQT 020052
MTRP59
METAR KP59 020051Z AUTO 00000KT 06/03 A3016 RMK AO1 SLP220 T00610028





000
SAUS43 KMQT 012357
MTRP53
METAR KP53 012356Z AUTO 34007KT 06/02 A3013 RMK AO1 SLP211 T00610022
10083 20061 58000





000
SAUS43 KMQT 012357
MTRP53
METAR KP53 012356Z AUTO 34007KT 06/02 A3013 RMK AO1 SLP211 T00610022
10083 20061 58000





000
SAUS43 KMQT 012353
MTRP59
METAR KP59 012351Z AUTO 00000KT 08/03 A3016 RMK AO1 SLP218 T00830028
10089 20056 56008





000
SAUS43 KMQT 012353
MTRP59
METAR KP59 012351Z AUTO 00000KT 08/03 A3016 RMK AO1 SLP218 T00830028
10089 20056 56008





000
SAUS43 KMQT 012257
MTRP53
METAR KP53 012256Z AUTO 34007KT 07/03 A3013 RMK AO1 SLP211 T00670028





000
SAUS43 KMQT 012252
MTRP59
METAR KP59 012251Z AUTO 00000KT 08/03 A3016 RMK AO1 SLP221 T00830028





000
SAUS43 KMQT 012252
MTRP59
METAR KP59 012251Z AUTO 00000KT 08/03 A3016 RMK AO1 SLP221 T00830028





000
SAUS43 KMQT 012158
MTRP53
METAR KP53 012156Z AUTO 33009KT 07/03 A3014 RMK AO1 SLP213 T00670028





000
SAUS43 KMQT 012154
MTRP59
METAR KP59 012151Z AUTO 00000KT 08/03 A3017 RMK AO1 SLP224 T00830028





000
SAUS43 KMQT 012154
MTRP59
METAR KP59 012151Z AUTO 00000KT 08/03 A3017 RMK AO1 SLP224 T00830028





    US Dept of Commerce
    National Oceanic and Atmospheric Administration
    National Weather Service
    1325 East West Highway
    Silver Spring, MD 20910
    Page Author: NWS Internet Services Team
Disclaimer
Information Quality
Credits
Glossary
Privacy Policy
Freedom of Information Act (FOIA)
About Us
Career Opportunities